createdAt,value
2022-08-22T00:00:13.690Z,1016.42
2022-08-22T00:01:15.179Z,1016.42
2022-08-22T00:02:13.006Z,1016.45
2022-08-22T00:02:45.363Z,1016.33
2022-08-22T00:02:46.653Z,1016.39
2022-08-22T00:02:48.933Z,1016.46
2022-08-22T00:02:59.714Z,1016.57
2022-08-22T00:03:04.653Z,1016.22
2022-08-22T00:03:11.074Z,1016.44
2022-08-22T00:03:11.356Z,1016.55
2022-08-22T00:03:18.744Z,1016.44
2022-08-22T00:04:13.335Z,1016.43
2022-08-22T00:05:13.322Z,1016.40
2022-08-22T00:06:13.139Z,1016.39
2022-08-22T00:07:13.170Z,1016.43
2022-08-22T00:08:13.197Z,1016.45
2022-08-22T00:09:13.300Z,1016.43
2022-08-22T00:10:25.079Z,1016.41
2022-08-22T00:11:13.656Z,1016.41
2022-08-22T00:12:13.573Z,1016.40
2022-08-22T00:13:14.987Z,1016.41
2022-08-22T00:14:12.819Z,1016.44
2022-08-22T00:15:31.587Z,1016.46
2022-08-22T00:16:13.927Z,1016.43
2022-08-22T00:17:12.948Z,1016.41
2022-08-22T00:18:12.911Z,1016.44
2022-08-22T00:19:12.945Z,1016.44
2022-08-22T00:20:15.907Z,1016.42
2022-08-22T00:21:13.138Z,1016.42
2022-08-22T00:22:12.967Z,1016.43
2022-08-22T00:23:12.952Z,1016.43
2022-08-22T00:24:15.766Z,1016.45
2022-08-22T00:25:24.575Z,1016.44
2022-08-22T00:26:13.615Z,1016.45
2022-08-22T00:27:16.200Z,1016.50
2022-08-22T00:28:13.332Z,1016.46
2022-08-22T00:29:13.355Z,1016.48
2022-08-22T00:30:13.015Z,1016.49
2022-08-22T00:31:15.762Z,1016.44
2022-08-22T00:32:13.704Z,1016.46
2022-08-22T00:33:14.817Z,1016.45
2022-08-22T00:34:14.137Z,1016.44
2022-08-22T00:35:12.984Z,1016.45
2022-08-22T00:36:13.016Z,1016.47
2022-08-22T00:37:14.593Z,1016.41
2022-08-22T00:38:14.513Z,1016.47
2022-08-22T00:39:13.422Z,1016.47
2022-08-22T00:40:13.571Z,1016.47
2022-08-22T00:41:13.943Z,1016.47
2022-08-22T00:42:12.795Z,1016.49
2022-08-22T00:43:12.836Z,1016.50
2022-08-22T00:44:13.662Z,1016.52
2022-08-22T00:45:13.640Z,1016.53
2022-08-22T00:46:13.545Z,1016.52
2022-08-22T00:47:13.466Z,1016.51
2022-08-22T00:48:14.610Z,1016.51
2022-08-22T00:49:13.480Z,1016.46
2022-08-22T00:50:13.375Z,1016.48
2022-08-22T00:51:13.300Z,1016.47
2022-08-22T00:52:16.568Z,1016.46
2022-08-22T00:53:14.354Z,1016.47
2022-08-22T00:54:17.858Z,1016.47
2022-08-22T00:55:13.962Z,1016.46
2022-08-22T00:56:13.041Z,1016.44
2022-08-22T00:57:13.131Z,1016.46
2022-08-22T00:58:13.007Z,1016.44
2022-08-22T00:59:23.867Z,1016.44
2022-08-22T01:00:14.631Z,1016.46
2022-08-22T01:01:15.065Z,1016.44
2022-08-22T01:02:13.052Z,1016.41
2022-08-22T01:03:13.469Z,1016.43
2022-08-22T01:04:13.496Z,1016.41
2022-08-22T01:05:14.029Z,1016.41
2022-08-22T01:06:13.044Z,1016.37
2022-08-22T01:07:12.955Z,1016.42
2022-08-22T01:08:12.904Z,1016.40
2022-08-22T01:09:12.735Z,1016.41
2022-08-22T01:10:13.680Z,1016.41
2022-08-22T01:11:13.632Z,1016.40
2022-08-22T01:12:15.292Z,1016.42
2022-08-22T01:13:14.875Z,1016.43
2022-08-22T01:14:13.877Z,1016.38
2022-08-22T01:15:13.911Z,1016.35
2022-08-22T01:16:14.187Z,1016.38
2022-08-22T01:17:13.182Z,1016.35
2022-08-22T01:18:13.207Z,1016.36
2022-08-22T01:19:13.365Z,1016.36
2022-08-22T01:20:13.416Z,1016.35
2022-08-22T01:21:13.540Z,1016.39
2022-08-22T01:22:14.024Z,1016.30
2022-08-22T01:23:15.141Z,1016.34
2022-08-22T01:24:13.361Z,1016.30
2022-08-22T01:25:13.229Z,1016.30
2022-08-22T01:26:13.466Z,1016.32
2022-08-22T01:27:15.090Z,1016.35
2022-08-22T01:28:16.578Z,1016.31
2022-08-22T01:29:13.487Z,1016.32
2022-08-22T01:30:13.509Z,1016.31
2022-08-22T01:31:15.544Z,1016.29
2022-08-22T01:32:14.953Z,1016.29
2022-08-22T01:33:12.990Z,1016.33
2022-08-22T01:34:14.296Z,1016.32
2022-08-22T01:35:13.258Z,1016.32
2022-08-22T01:36:14.857Z,1016.31
2022-08-22T01:37:14.445Z,1016.32
2022-08-22T01:38:13.564Z,1016.32
2022-08-22T01:39:13.509Z,1016.30
2022-08-22T01:40:13.488Z,1016.29
2022-08-22T01:41:13.296Z,1016.29
2022-08-22T01:42:13.230Z,1016.32
2022-08-22T01:43:13.566Z,1016.29
2022-08-22T01:44:13.550Z,1016.33
2022-08-22T01:45:13.444Z,1016.30
2022-08-22T01:46:13.465Z,1016.29
2022-08-22T01:47:13.807Z,1016.26
2022-08-22T01:48:14.888Z,1016.29
2022-08-22T01:49:13.280Z,1016.27
2022-08-22T01:50:13.101Z,1016.27
2022-08-22T01:51:13.001Z,1016.30
2022-08-22T01:52:13.060Z,1016.30
2022-08-22T01:53:13.169Z,1016.33
2022-08-22T01:54:13.177Z,1016.34
2022-08-22T01:55:12.974Z,1016.34
2022-08-22T01:56:13.048Z,1016.34
2022-08-22T01:57:13.012Z,1016.37
2022-08-22T01:58:13.040Z,1016.33
2022-08-22T01:59:13.342Z,1016.32
2022-08-22T02:00:13.184Z,1016.33
2022-08-22T02:01:13.614Z,1016.30
2022-08-22T02:02:13.614Z,1016.32
2022-08-22T02:03:13.723Z,1016.33
2022-08-22T02:04:13.545Z,1016.32
2022-08-22T02:05:13.422Z,1016.30
2022-08-22T02:06:14.533Z,1016.31
2022-08-22T02:07:13.826Z,1016.32
2022-08-22T02:08:14.063Z,1016.33
2022-08-22T02:09:12.928Z,1016.33
2022-08-22T02:10:13.030Z,1016.29
2022-08-22T02:11:13.508Z,1016.31
2022-08-22T02:12:13.822Z,1016.30
2022-08-22T02:13:13.837Z,1016.32
2022-08-22T02:14:14.005Z,1016.31
2022-08-22T02:15:12.973Z,1016.34
2022-08-22T02:16:14.823Z,1016.33
2022-08-22T02:17:14.304Z,1016.35
2022-08-22T02:18:13.405Z,1016.36
2022-08-22T02:19:13.462Z,1016.31
2022-08-22T02:20:13.447Z,1016.30
2022-08-22T02:21:13.484Z,1016.29
2022-08-22T02:22:13.352Z,1016.30
2022-08-22T02:23:13.173Z,1016.27
2022-08-22T02:24:13.036Z,1016.30
2022-08-22T02:25:12.918Z,1016.30
2022-08-22T02:26:13.017Z,1016.26
2022-08-22T02:27:13.356Z,1016.27
2022-08-22T02:28:13.514Z,1016.27
2022-08-22T02:29:13.358Z,1016.25
2022-08-22T02:30:13.492Z,1016.24
2022-08-22T02:31:16.761Z,1016.28
2022-08-22T02:32:13.429Z,1016.27
2022-08-22T02:33:13.425Z,1016.25
2022-08-22T02:34:13.793Z,1016.25
2022-08-22T02:35:14.238Z,1016.22
2022-08-22T02:36:13.135Z,1016.20
2022-08-22T02:37:13.370Z,1016.21
2022-08-22T02:38:14.776Z,1016.20
2022-08-22T02:39:13.889Z,1016.15
2022-08-22T02:40:13.870Z,1016.16
2022-08-22T02:41:12.900Z,1016.14
2022-08-22T02:42:13.041Z,1016.16
2022-08-22T02:43:13.011Z,1016.13
2022-08-22T02:44:13.147Z,1016.15
2022-08-22T02:45:13.111Z,1016.17
2022-08-22T02:46:13.015Z,1016.15
2022-08-22T02:47:12.841Z,1016.19
2022-08-22T02:48:13.877Z,1016.17
2022-08-22T02:49:13.912Z,1016.20
2022-08-22T02:50:13.379Z,1016.16
2022-08-22T02:51:13.441Z,1016.17
2022-08-22T02:52:13.979Z,1016.17
2022-08-22T02:53:12.840Z,1016.13
2022-08-22T02:54:13.875Z,1016.13
2022-08-22T02:55:15.812Z,1016.18
2022-08-22T02:56:13.597Z,1016.15
2022-08-22T02:57:14.402Z,1016.16
2022-08-22T02:58:13.854Z,1016.15
2022-08-22T02:59:14.072Z,1016.12
2022-08-22T03:00:30.631Z,1016.11
2022-08-22T03:01:13.134Z,1016.11
2022-08-22T03:02:12.965Z,1016.13
2022-08-22T03:03:12.883Z,1016.10
2022-08-22T03:04:14.852Z,1016.11
2022-08-22T03:05:14.008Z,1016.10
2022-08-22T03:06:13.535Z,1016.08
2022-08-22T03:07:13.409Z,1016.07
2022-08-22T03:08:13.546Z,1016.05
2022-08-22T03:09:13.468Z,1016.04
2022-08-22T03:10:15.147Z,1016.03
2022-08-22T03:11:13.185Z,1016.02
2022-08-22T03:12:13.259Z,1016.01
2022-08-22T03:13:13.297Z,1016.03
2022-08-22T03:14:13.293Z,1015.98
2022-08-22T03:15:13.256Z,1015.96
2022-08-22T03:16:18.138Z,1015.96
2022-08-22T03:17:13.067Z,1015.95
2022-08-22T03:18:12.973Z,1015.95
2022-08-22T03:19:13.303Z,1015.95
2022-08-22T03:20:13.989Z,1015.95
2022-08-22T03:21:12.936Z,1015.91
2022-08-22T03:22:12.726Z,1015.94
2022-08-22T03:23:13.833Z,1015.92
2022-08-22T03:24:13.910Z,1015.97
2022-08-22T03:25:12.924Z,1015.93
2022-08-22T03:26:12.930Z,1015.94
2022-08-22T03:27:13.139Z,1015.93
2022-08-22T03:28:13.707Z,1015.92
2022-08-22T03:29:13.712Z,1015.91
2022-08-22T03:30:14.124Z,1015.91
2022-08-22T03:31:14.560Z,1015.91
2022-08-22T03:32:13.457Z,1015.91
2022-08-22T03:33:13.556Z,1015.88
2022-08-22T03:34:13.453Z,1015.85
2022-08-22T03:35:13.593Z,1015.89
2022-08-22T03:36:13.732Z,1015.89
2022-08-22T03:37:15.157Z,1015.89
2022-08-22T03:38:13.356Z,1015.92
2022-08-22T03:39:17.309Z,1015.88
2022-08-22T03:40:15.446Z,1015.85
2022-08-22T03:41:13.703Z,1015.85
2022-08-22T03:42:13.770Z,1015.85
2022-08-22T03:43:13.673Z,1015.85
2022-08-22T03:44:14.059Z,1015.85
2022-08-22T03:45:12.966Z,1015.84
2022-08-22T03:46:13.007Z,1015.84
2022-08-22T03:47:13.665Z,1015.81
2022-08-22T03:48:13.698Z,1015.80
2022-08-22T03:49:15.432Z,1015.84
2022-08-22T03:50:13.458Z,1015.81
2022-08-22T03:51:13.609Z,1015.83
2022-08-22T03:52:15.076Z,1015.82
2022-08-22T03:53:16.250Z,1015.83
2022-08-22T03:54:13.150Z,1015.85
2022-08-22T03:55:13.036Z,1015.85
2022-08-22T03:56:14.455Z,1015.84
2022-08-22T03:57:13.320Z,1015.89
2022-08-22T03:59:15.056Z,1015.85
2022-08-22T04:00:13.147Z,1015.85
2022-08-22T04:01:13.035Z,1015.84
2022-08-22T04:02:41.998Z,1015.86
2022-08-22T04:03:13.925Z,1015.84
2022-08-22T04:04:12.861Z,1015.86
2022-08-22T04:05:13.874Z,1015.87
2022-08-22T04:06:13.323Z,1015.83
2022-08-22T04:07:28.057Z,1015.84
2022-08-22T04:08:13.062Z,1015.83
2022-08-22T04:09:13.280Z,1015.84
2022-08-22T04:10:13.712Z,1015.84
2022-08-22T04:11:13.630Z,1015.85
2022-08-22T04:12:13.494Z,1015.85
2022-08-22T04:13:13.403Z,1015.86
2022-08-22T04:14:13.490Z,1015.86
2022-08-22T04:15:13.637Z,1015.86
2022-08-22T04:16:13.499Z,1015.84
2022-08-22T04:17:13.384Z,1015.87
2022-08-22T04:18:13.267Z,1015.86
2022-08-22T04:19:13.476Z,1015.87
2022-08-22T04:20:13.463Z,1015.88
2022-08-22T04:21:13.655Z,1015.91
2022-08-22T04:22:13.606Z,1015.89
2022-08-22T04:23:13.783Z,1015.89
2022-08-22T04:24:13.596Z,1015.91
2022-08-22T04:25:13.742Z,1015.90
2022-08-22T04:26:13.629Z,1015.93
2022-08-22T04:27:13.633Z,1015.96
2022-08-22T04:28:15.701Z,1015.97
2022-08-22T04:29:18.986Z,1015.96
2022-08-22T04:30:12.867Z,1015.98
2022-08-22T04:31:15.692Z,1015.96
2022-08-22T04:32:14.773Z,1015.96
2022-08-22T04:33:13.003Z,1015.95
2022-08-22T04:34:12.921Z,1015.96
2022-08-22T04:35:12.842Z,1015.93
2022-08-22T04:36:13.796Z,1015.92
2022-08-22T04:37:13.734Z,1015.87
2022-08-22T04:38:14.241Z,1015.91
2022-08-22T04:39:13.056Z,1015.92
2022-08-22T04:40:12.965Z,1015.89
2022-08-22T04:41:13.056Z,1015.87
2022-08-22T04:42:31.702Z,1015.90
2022-08-22T04:43:13.654Z,1015.89
2022-08-22T04:44:14.011Z,1015.92
2022-08-22T04:45:13.133Z,1015.87
2022-08-22T04:46:13.039Z,1015.89
2022-08-22T04:47:12.949Z,1015.88
2022-08-22T04:48:13.027Z,1015.90
2022-08-22T04:50:13.010Z,1015.92
2022-08-22T04:51:23.117Z,1015.94
2022-08-22T04:52:13.295Z,1015.95
2022-08-22T04:53:13.583Z,1015.96
2022-08-22T04:54:13.649Z,1015.96
2022-08-22T04:55:28.345Z,1015.94
2022-08-22T04:56:13.279Z,1015.94
2022-08-22T04:57:13.160Z,1015.96
2022-08-22T04:58:13.418Z,1015.99
2022-08-22T04:59:13.279Z,1016.00
2022-08-22T05:00:14.786Z,1015.97
2022-08-22T05:01:13.736Z,1015.94
2022-08-22T05:02:13.765Z,1015.94
2022-08-22T05:03:13.778Z,1015.97
2022-08-22T05:04:13.729Z,1015.95
2022-08-22T05:05:13.990Z,1015.95
2022-08-22T05:06:12.945Z,1015.96
2022-08-22T05:07:13.259Z,1015.96
2022-08-22T05:08:13.053Z,1016.01
2022-08-22T05:09:16.063Z,1015.99
2022-08-22T05:10:13.264Z,1015.97
2022-08-22T05:11:13.542Z,1015.97
2022-08-22T05:12:13.733Z,1015.97
2022-08-22T05:13:15.489Z,1015.97
2022-08-22T05:14:13.352Z,1015.97
2022-08-22T05:15:13.264Z,1015.98
2022-08-22T05:16:13.682Z,1016.00
2022-08-22T05:17:15.643Z,1016.00
2022-08-22T05:18:12.918Z,1016.01
2022-08-22T05:19:16.140Z,1016.04
2022-08-22T05:20:13.029Z,1016.05
2022-08-22T05:21:14.816Z,1016.07
2022-08-22T05:22:14.378Z,1016.07
2022-08-22T05:23:17.099Z,1016.07
2022-08-22T05:24:13.708Z,1016.06
2022-08-22T05:25:13.950Z,1016.06
2022-08-22T05:26:13.030Z,1016.06
2022-08-22T05:27:13.144Z,1016.06
2022-08-22T05:28:13.017Z,1016.09
2022-08-22T05:29:14.468Z,1016.09
2022-08-22T05:30:13.619Z,1016.10
2022-08-22T05:31:13.538Z,1016.12
2022-08-22T05:32:13.540Z,1016.12
2022-08-22T05:33:14.133Z,1016.12
2022-08-22T05:34:13.003Z,1016.13
2022-08-22T05:35:12.921Z,1016.13
2022-08-22T05:36:12.810Z,1016.15
2022-08-22T05:37:15.190Z,1016.13
2022-08-22T05:38:13.023Z,1016.11
2022-08-22T05:39:12.855Z,1016.14
2022-08-22T05:40:13.739Z,1016.14
2022-08-22T05:41:13.616Z,1016.15
2022-08-22T05:42:13.530Z,1016.16
2022-08-22T05:43:13.964Z,1016.17
2022-08-22T05:44:13.010Z,1016.18
2022-08-22T05:45:14.403Z,1016.16
2022-08-22T05:46:13.687Z,1016.19
2022-08-22T05:47:15.484Z,1016.19
2022-08-22T05:48:14.118Z,1016.19
2022-08-22T05:49:13.146Z,1016.18
2022-08-22T05:50:13.399Z,1016.17
2022-08-22T05:51:13.416Z,1016.19
2022-08-22T05:52:14.199Z,1016.13
2022-08-22T05:53:13.267Z,1016.19
2022-08-22T05:54:13.360Z,1016.15
2022-08-22T05:55:13.334Z,1016.18
2022-08-22T05:56:13.185Z,1016.21
2022-08-22T05:57:13.098Z,1016.19
2022-08-22T05:58:13.001Z,1016.23
2022-08-22T05:59:13.299Z,1016.23
2022-08-22T06:00:13.231Z,1016.23
2022-08-22T06:01:13.065Z,1016.25
2022-08-22T06:02:13.519Z,1016.23
2022-08-22T06:03:13.498Z,1016.24
2022-08-22T06:04:13.463Z,1016.22
2022-08-22T06:05:13.317Z,1016.21
2022-08-22T06:06:13.291Z,1016.18
2022-08-22T06:07:13.464Z,1016.21
2022-08-22T06:08:13.497Z,1016.21
2022-08-22T06:09:13.454Z,1016.20
2022-08-22T06:10:14.710Z,1016.23
2022-08-22T06:11:15.339Z,1016.24
2022-08-22T06:12:21.903Z,1016.27
2022-08-22T06:13:13.398Z,1016.26
2022-08-22T06:14:15.214Z,1016.29
2022-08-22T06:15:13.157Z,1016.26
2022-08-22T06:16:14.598Z,1016.30
2022-08-22T06:17:13.238Z,1016.28
2022-08-22T06:18:13.056Z,1016.29
2022-08-22T06:19:19.455Z,1016.32
2022-08-22T06:20:16.128Z,1016.33
2022-08-22T06:21:13.193Z,1016.31
2022-08-22T06:22:16.480Z,1016.35
2022-08-22T06:23:13.021Z,1016.31
2022-08-22T06:24:13.512Z,1016.30
2022-08-22T06:25:13.499Z,1016.32
2022-08-22T06:26:21.094Z,1016.33
2022-08-22T06:27:14.523Z,1016.31
2022-08-22T06:28:14.647Z,1016.34
2022-08-22T06:29:13.563Z,1016.32
2022-08-22T06:30:13.652Z,1016.34
2022-08-22T06:31:15.158Z,1016.38
2022-08-22T06:32:13.085Z,1016.41
2022-08-22T06:33:12.984Z,1016.40
2022-08-22T06:34:13.009Z,1016.46
2022-08-22T06:35:13.725Z,1016.39
2022-08-22T06:36:16.496Z,1016.44
2022-08-22T06:37:16.565Z,1016.46
2022-08-22T06:38:13.800Z,1016.47
2022-08-22T06:39:20.376Z,1016.44
2022-08-22T06:40:16.629Z,1016.49
2022-08-22T06:41:16.697Z,1016.50
2022-08-22T06:42:16.929Z,1016.56
2022-08-22T06:43:13.000Z,1016.54
2022-08-22T06:44:15.913Z,1016.55
2022-08-22T06:45:15.471Z,1016.57
2022-08-22T06:46:16.728Z,1016.55
2022-08-22T06:47:16.444Z,1016.58
2022-08-22T06:48:17.859Z,1016.53
2022-08-22T06:49:13.104Z,1016.52
2022-08-22T06:50:14.674Z,1016.52
2022-08-22T06:51:16.694Z,1016.51
2022-08-22T06:52:13.624Z,1016.54
2022-08-22T06:53:16.169Z,1016.54
2022-08-22T06:54:14.785Z,1016.50
2022-08-22T06:55:15.433Z,1016.55
2022-08-22T06:56:14.983Z,1016.54
2022-08-22T06:57:16.087Z,1016.51
2022-08-22T06:58:13.274Z,1016.53
2022-08-22T06:59:13.242Z,1016.56
2022-08-22T07:00:16.122Z,1016.54
2022-08-22T07:01:13.655Z,1016.50
2022-08-22T07:02:13.948Z,1016.50
2022-08-22T07:03:14.834Z,1016.49
2022-08-22T07:04:16.848Z,1016.52
2022-08-22T07:05:15.369Z,1016.55
2022-08-22T07:06:15.599Z,1016.57
2022-08-22T07:07:15.133Z,1016.51
2022-08-22T07:08:13.579Z,1016.52
2022-08-22T07:09:15.134Z,1016.52
2022-08-22T07:10:14.436Z,1016.49
2022-08-22T07:11:16.606Z,1016.50
2022-08-22T07:12:16.480Z,1016.51
2022-08-22T07:13:15.220Z,1016.51
2022-08-22T07:14:13.177Z,1016.51
2022-08-22T07:15:15.548Z,1016.53
2022-08-22T07:16:13.673Z,1016.53
2022-08-22T07:17:19.724Z,1016.52
2022-08-22T07:18:13.875Z,1016.54
2022-08-22T07:19:15.782Z,1016.53
2022-08-22T07:20:16.758Z,1016.50
2022-08-22T07:21:16.823Z,1016.51
2022-08-22T07:22:15.791Z,1016.50
2022-08-22T07:23:18.557Z,1016.50
2022-08-22T07:24:13.675Z,1016.51
2022-08-22T07:25:13.540Z,1016.46
2022-08-22T07:26:16.294Z,1016.46
2022-08-22T07:27:13.179Z,1016.52
2022-08-22T07:28:16.070Z,1016.56
2022-08-22T07:29:15.709Z,1016.55
2022-08-22T07:30:14.774Z,1016.57
2022-08-22T07:31:14.640Z,1016.58
2022-08-22T07:32:15.973Z,1016.61
2022-08-22T07:33:26.756Z,1016.56
2022-08-22T07:34:18.513Z,1016.62
2022-08-22T07:35:17.642Z,1016.60
2022-08-22T07:36:15.004Z,1016.65
2022-08-22T07:37:14.941Z,1016.61
2022-08-22T07:38:15.041Z,1016.61
2022-08-22T07:39:17.192Z,1016.60
2022-08-22T07:40:18.369Z,1016.60
2022-08-22T07:41:15.337Z,1016.62
2022-08-22T07:42:15.133Z,1016.64
2022-08-22T07:43:14.897Z,1016.63
2022-08-22T07:44:17.630Z,1016.64
2022-08-22T07:45:16.586Z,1016.67
2022-08-22T07:46:15.527Z,1016.71
2022-08-22T07:47:15.674Z,1016.72
2022-08-22T07:48:25.094Z,1016.67
2022-08-22T07:49:15.132Z,1016.69
2022-08-22T07:50:18.371Z,1016.65
2022-08-22T07:51:15.008Z,1016.71
2022-08-22T07:52:13.531Z,1016.68
2022-08-22T07:53:17.734Z,1016.70
2022-08-22T07:54:14.528Z,1016.67
2022-08-22T07:55:16.482Z,1016.67
2022-08-22T07:56:13.354Z,1016.66
2022-08-22T07:57:13.267Z,1016.66
2022-08-22T07:58:13.177Z,1016.64
2022-08-22T07:59:13.345Z,1016.66
2022-08-22T08:00:16.154Z,1016.67
2022-08-22T08:01:17.286Z,1016.67
2022-08-22T08:02:13.346Z,1016.67
2022-08-22T08:03:17.460Z,1016.66
2022-08-22T08:04:16.337Z,1016.63
2022-08-22T08:05:13.442Z,1016.63
2022-08-22T08:06:16.018Z,1016.63
2022-08-22T08:07:13.206Z,1016.61
2022-08-22T08:08:15.537Z,1016.64
2022-08-22T08:09:17.138Z,1016.66
2022-08-22T08:10:15.522Z,1016.62
2022-08-22T08:11:16.702Z,1016.60
2022-08-22T08:12:13.951Z,1016.60
2022-08-22T08:13:16.419Z,1016.63
2022-08-22T08:14:15.501Z,1016.61
2022-08-22T08:15:18.175Z,1016.61
2022-08-22T08:16:13.122Z,1016.65
2022-08-22T08:17:15.785Z,1016.64
2022-08-22T08:18:15.619Z,1016.65
2022-08-22T08:19:17.077Z,1016.63
2022-08-22T08:20:13.085Z,1016.63
2022-08-22T08:21:13.105Z,1016.59
2022-08-22T08:22:14.759Z,1016.58
2022-08-22T08:23:13.687Z,1016.58
2022-08-22T08:24:18.082Z,1016.59
2022-08-22T08:25:18.609Z,1016.58
2022-08-22T08:26:14.955Z,1016.56
2022-08-22T08:27:16.967Z,1016.58
2022-08-22T08:28:14.871Z,1016.56
2022-08-22T08:29:16.340Z,1016.54
2022-08-22T08:30:16.083Z,1016.55
2022-08-22T08:31:16.950Z,1016.54
2022-08-22T08:32:21.393Z,1016.56
2022-08-22T08:33:24.741Z,1016.54
2022-08-22T08:34:13.374Z,1016.60
2022-08-22T08:35:16.408Z,1016.56
2022-08-22T08:36:17.551Z,1016.54
2022-08-22T08:37:15.758Z,1016.52
2022-08-22T08:38:14.030Z,1016.50
2022-08-22T08:39:13.254Z,1016.48
2022-08-22T08:40:14.713Z,1016.46
2022-08-22T08:41:14.759Z,1016.47
2022-08-22T08:42:16.362Z,1016.48
2022-08-22T08:43:18.420Z,1016.43
2022-08-22T08:44:13.319Z,1016.42
2022-08-22T08:45:16.551Z,1016.39
2022-08-22T08:46:19.003Z,1016.40
2022-08-22T08:47:14.583Z,1016.35
2022-08-22T08:48:13.656Z,1016.34
2022-08-22T08:49:13.719Z,1016.34
2022-08-22T08:50:13.913Z,1016.31
2022-08-22T08:51:16.061Z,1016.32
2022-08-22T08:52:16.100Z,1016.32
2022-08-22T08:53:16.821Z,1016.30
2022-08-22T08:54:14.873Z,1016.29
2022-08-22T08:55:21.763Z,1016.26
2022-08-22T08:56:19.921Z,1016.27
2022-08-22T08:57:17.690Z,1016.29
2022-08-22T08:58:19.181Z,1016.27
2022-08-22T08:59:17.225Z,1016.27
2022-08-22T09:00:18.494Z,1016.28
2022-08-22T09:01:15.513Z,1016.25
2022-08-22T09:02:20.655Z,1016.23
2022-08-22T09:03:15.641Z,1016.17
2022-08-22T09:04:16.629Z,1016.21
2022-08-22T09:05:16.836Z,1016.18
2022-08-22T09:06:16.824Z,1016.19
2022-08-22T09:07:16.853Z,1016.13
2022-08-22T09:08:18.444Z,1016.13
2022-08-22T09:09:17.332Z,1016.13
2022-08-22T09:10:18.932Z,1016.11
2022-08-22T09:11:18.109Z,1016.17
2022-08-22T09:12:18.343Z,1016.13
2022-08-22T09:13:14.351Z,1016.10
2022-08-22T09:14:16.200Z,1016.12
2022-08-22T09:15:15.089Z,1016.08
2022-08-22T09:16:17.742Z,1016.09
2022-08-22T09:17:16.129Z,1016.09
2022-08-22T09:18:18.377Z,1016.08
2022-08-22T09:19:20.036Z,1016.04
2022-08-22T09:20:19.368Z,1016.07
2022-08-22T09:21:16.663Z,1016.05
2022-08-22T09:22:14.315Z,1016.04
2022-08-22T09:23:17.507Z,1016.08
2022-08-22T09:24:18.309Z,1016.06
2022-08-22T09:25:18.327Z,1016.08
2022-08-22T09:26:18.719Z,1016.05
2022-08-22T09:27:17.736Z,1016.05
2022-08-22T09:28:15.488Z,1016.05
2022-08-22T09:29:17.395Z,1016.05
2022-08-22T09:30:13.718Z,1016.07
2022-08-22T09:31:21.944Z,1016.10
2022-08-22T09:32:19.136Z,1016.11
2022-08-22T09:33:15.580Z,1016.11
2022-08-22T09:34:23.751Z,1016.12
2022-08-22T09:35:14.026Z,1016.08
2022-08-22T09:36:15.358Z,1016.08
2022-08-22T09:37:16.532Z,1016.09
2022-08-22T09:38:17.692Z,1016.07
2022-08-22T09:39:15.564Z,1016.05
2022-08-22T09:40:18.822Z,1016.04
2022-08-22T09:41:18.033Z,1016.00
2022-08-22T09:42:17.006Z,1016.00
2022-08-22T09:43:21.276Z,1015.99
2022-08-22T09:44:13.923Z,1015.99
2022-08-22T09:45:16.146Z,1015.96
2022-08-22T09:46:13.144Z,1015.97
2022-08-22T09:47:15.964Z,1015.99
2022-08-22T09:48:17.532Z,1015.98
2022-08-22T09:49:17.991Z,1015.95
2022-08-22T09:50:17.804Z,1015.97
2022-08-22T09:51:32.726Z,1015.96
2022-08-22T09:52:15.121Z,1015.95
2022-08-22T09:53:18.014Z,1015.93
2022-08-22T09:54:18.682Z,1015.89
2022-08-22T09:55:16.149Z,1015.90
2022-08-22T09:56:19.012Z,1015.91
2022-08-22T09:57:14.945Z,1015.94
2022-08-22T09:58:17.092Z,1015.86
2022-08-22T09:59:14.790Z,1015.93
2022-08-22T10:00:17.187Z,1015.89
2022-08-22T10:01:16.846Z,1015.78
2022-08-22T10:02:15.899Z,1015.81
2022-08-22T10:03:15.799Z,1015.80
2022-08-22T18:04:45.661Z,1013.96
2022-08-22T18:04:59.512Z,1014.01
2022-08-22T18:05:13.467Z,1014.00
2022-08-22T18:06:13.642Z,1013.99
2022-08-22T18:07:13.945Z,1014.00
2022-08-22T18:08:37.610Z,1014.02
2022-08-22T18:09:14.197Z,1014.02
2022-08-22T18:10:14.373Z,1014.01
2022-08-22T18:11:13.346Z,1014.01
2022-08-22T18:12:14.326Z,1014.01
2022-08-22T18:13:13.672Z,1014.04
2022-08-22T18:14:16.872Z,1014.07
2022-08-22T18:15:15.389Z,1014.02
2022-08-22T18:16:14.294Z,1014.01
2022-08-22T18:17:13.413Z,1014.04
2022-08-22T18:18:16.047Z,1014.06
2022-08-22T18:19:14.930Z,1013.99
2022-08-22T18:20:12.818Z,1014.05
2022-08-22T18:21:16.763Z,1014.00
2022-08-22T18:22:16.778Z,1014.03
2022-08-22T18:23:28.400Z,1014.04
2022-08-22T18:24:17.596Z,1014.05
2022-08-22T18:25:18.255Z,1014.04
2022-08-22T18:26:18.712Z,1014.09
2022-08-22T18:27:34.837Z,1014.06
2022-08-22T18:28:18.601Z,1014.04
2022-08-22T18:29:15.533Z,1014.03
2022-08-22T18:30:19.831Z,1014.04
2022-08-22T18:31:13.666Z,1014.04
2022-08-22T18:32:15.209Z,1014.09
2022-08-22T18:33:14.832Z,1014.08
2022-08-22T18:34:18.409Z,1014.07
2022-08-22T18:35:14.562Z,1014.09
2022-08-22T18:36:15.232Z,1014.10
2022-08-22T18:37:16.557Z,1014.12
2022-08-22T18:38:20.030Z,1014.12
2022-08-22T18:39:15.333Z,1014.12
2022-08-22T18:40:17.472Z,1014.10
2022-08-22T18:41:18.029Z,1014.12
2022-08-22T18:42:18.240Z,1014.13
2022-08-22T18:43:13.129Z,1014.13
2022-08-22T18:44:16.319Z,1014.14
2022-08-22T18:45:17.028Z,1014.15
2022-08-22T18:46:19.087Z,1014.17
2022-08-22T18:47:17.223Z,1014.15
2022-08-22T18:48:14.893Z,1014.19
2022-08-22T18:49:16.796Z,1014.16
2022-08-22T18:50:32.073Z,1014.17
2022-08-22T18:51:13.047Z,1014.13
2022-08-22T18:52:20.464Z,1014.17
2022-08-22T18:53:19.208Z,1014.16
2022-08-22T18:54:13.210Z,1014.18
2022-08-22T18:55:15.128Z,1014.19
2022-08-22T18:56:18.559Z,1014.20
2022-08-22T18:57:18.954Z,1014.23
2022-08-22T18:58:15.984Z,1014.25
2022-08-22T18:59:16.961Z,1014.24
2022-08-22T19:00:16.486Z,1014.27
2022-08-22T19:01:16.262Z,1014.27
2022-08-22T19:02:17.518Z,1014.26
2022-08-22T19:03:19.028Z,1014.26
2022-08-22T19:04:18.733Z,1014.24
2022-08-22T19:05:18.337Z,1014.27
2022-08-22T19:06:13.184Z,1014.27
2022-08-22T19:07:17.226Z,1014.27
2022-08-22T19:08:18.167Z,1014.30
2022-08-22T19:09:13.140Z,1014.28
2022-08-22T19:10:16.913Z,1014.26
2022-08-22T19:11:15.180Z,1014.30
2022-08-22T19:12:16.747Z,1014.29
2022-08-22T19:13:19.312Z,1014.30
2022-08-22T19:14:13.168Z,1014.32
2022-08-22T19:15:19.464Z,1014.30
2022-08-22T19:16:15.649Z,1014.34
2022-08-22T19:17:16.637Z,1014.33
2022-08-22T19:18:16.035Z,1014.41
2022-08-22T19:19:19.103Z,1014.35
2022-08-22T19:20:17.515Z,1014.35
2022-08-22T19:21:17.510Z,1014.35
2022-08-22T19:22:13.482Z,1014.35
2022-08-22T19:23:18.084Z,1014.34
2022-08-22T19:25:13.412Z,1014.35
2022-08-22T19:26:14.848Z,1014.36
2022-08-22T19:27:18.205Z,1014.37
2022-08-22T19:28:15.898Z,1014.34
2022-08-22T19:29:16.823Z,1014.37
2022-08-22T19:30:18.453Z,1014.39
2022-08-22T19:31:23.784Z,1014.36
2022-08-22T19:32:18.360Z,1014.34
2022-08-22T19:33:13.249Z,1014.37
2022-08-22T19:34:14.910Z,1014.35
2022-08-22T19:35:17.307Z,1014.36
2022-08-22T19:36:13.314Z,1014.41
2022-08-22T19:37:33.314Z,1014.41
2022-08-22T19:38:14.621Z,1014.44
2022-08-22T19:39:14.995Z,1014.44
2022-08-22T19:40:19.681Z,1014.48
2022-08-22T19:41:16.229Z,1014.45
2022-08-22T19:42:16.359Z,1014.46
2022-08-22T19:43:15.077Z,1014.48
2022-08-22T19:44:13.873Z,1014.49
2022-08-22T19:45:19.580Z,1014.49
2022-08-22T19:46:14.456Z,1014.50
2022-08-22T19:47:16.722Z,1014.54
2022-08-22T19:48:14.366Z,1014.49
2022-08-22T19:49:13.435Z,1014.46
2022-08-22T19:50:17.865Z,1014.49
2022-08-22T19:51:15.529Z,1014.51
2022-08-22T19:52:18.033Z,1014.53
2022-08-22T19:53:13.239Z,1014.53
2022-08-22T19:54:15.930Z,1014.53
2022-08-22T19:55:14.632Z,1014.46
2022-08-22T19:56:19.495Z,1014.46
2022-08-22T19:57:13.523Z,1014.46
2022-08-22T19:58:14.328Z,1014.49
2022-08-22T19:59:13.209Z,1014.46
2022-08-22T20:00:18.211Z,1014.46